createdAt,value
2022-12-11T00:01:19.445Z,82.45
2022-12-11T00:03:48.685Z,82.46
2022-12-11T00:06:20.703Z,82.83
2022-12-11T00:08:54.196Z,82.24
2022-12-11T00:11:24.444Z,82.89
2022-12-11T00:13:53.087Z,81.93
2022-12-11T00:16:26.754Z,82.83
2022-12-11T00:18:56.288Z,82.14
2022-12-11T00:21:24.935Z,83.09
2022-12-11T00:23:53.775Z,82.63
2022-12-11T00:26:22.447Z,82.19
2022-12-11T00:28:58.273Z,82.14
2022-12-11T00:31:27.710Z,82.48
2022-12-11T00:33:56.328Z,83.19
2022-12-11T00:36:27.567Z,83.45
2022-12-11T00:38:56.406Z,81.80
2022-12-11T00:41:25.448Z,82.04
2022-12-11T00:43:54.151Z,83.29
2022-12-11T00:46:23.021Z,82.25
2022-12-11T00:48:51.960Z,83.28
2022-12-11T00:51:20.872Z,81.99
2022-12-11T00:53:49.710Z,83.21
2022-12-11T00:56:21.538Z,82.86
2022-12-11T00:58:50.789Z,82.41
2022-12-11T01:01:25.236Z,83.13
2022-12-11T01:03:54.878Z,82.28
2022-12-11T01:06:26.620Z,83.41
2022-12-11T01:09:14.252Z,82.67
2022-12-11T01:11:44.397Z,83.16
2022-12-11T01:14:13.524Z,83.04
2022-12-11T01:16:42.523Z,83.41
2022-12-11T01:19:11.943Z,83.45
2022-12-11T01:21:40.684Z,82.49
2022-12-11T01:24:09.754Z,82.37
2022-12-11T01:26:38.437Z,82.16
2022-12-11T01:29:06.910Z,82.55
2022-12-11T01:31:35.741Z,82.12
2022-12-11T01:34:04.955Z,82.46
2022-12-11T01:36:33.699Z,82.08
2022-12-11T01:39:03.092Z,82.36
2022-12-11T01:41:32.083Z,82.78
2022-12-11T01:44:05.402Z,82.36
2022-12-11T01:46:36.894Z,82.86
2022-12-11T01:49:10.168Z,82.37
2022-12-11T01:51:49.594Z,82.51
2022-12-11T01:54:20.378Z,82.62
2022-12-11T01:56:50.821Z,82.00
2022-12-11T01:59:25.503Z,82.35
2022-12-11T02:02:27.346Z,82.14
2022-12-11T02:04:56.350Z,82.03
2022-12-11T02:07:25.345Z,83.23
2022-12-11T02:09:54.228Z,83.55
2022-12-11T02:12:37.346Z,82.59
2022-12-11T02:15:24.437Z,83.33
2022-12-11T02:18:20.522Z,82.51
2022-12-11T02:21:14.690Z,82.56
2022-12-11T02:24:02.320Z,83.11
2022-12-11T02:26:43.805Z,83.21
2022-12-11T02:29:20.963Z,83.04
2022-12-11T02:34:41.163Z,82.54
2022-12-11T02:37:17.642Z,82.93
2022-12-11T02:39:47.544Z,83.36
2022-12-11T02:42:17.482Z,82.89
2022-12-11T02:44:49.242Z,82.89
2022-12-11T02:47:21.155Z,83.62
2022-12-11T02:49:51.282Z,82.53
2022-12-11T02:52:24.564Z,82.56
2022-12-11T02:54:57.643Z,83.37
2022-12-11T02:57:36.312Z,82.28
2022-12-11T03:00:05.990Z,83.56
2022-12-11T03:02:34.609Z,82.59
2022-12-11T03:05:06.362Z,82.67
2022-12-11T03:07:38.925Z,82.48
2022-12-11T03:10:10.095Z,82.76
2022-12-11T03:12:41.440Z,83.19
2022-12-11T03:15:14.852Z,82.07
2022-12-11T03:17:57.716Z,82.61
2022-12-11T03:20:44.483Z,82.92
2022-12-11T03:23:29.283Z,83.08
2022-12-11T03:25:59.763Z,82.35
2022-12-11T03:29:00.603Z,82.88
2022-12-11T03:31:46.374Z,82.40
2022-12-11T03:34:24.297Z,83.27
2022-12-11T03:36:54.553Z,83.26
2022-12-11T03:39:30.398Z,83.00
2022-12-11T03:42:04.129Z,83.06
2022-12-11T03:44:34.386Z,82.41
2022-12-11T03:47:06.932Z,82.66
2022-12-11T03:49:43.834Z,82.92
2022-12-11T03:52:15.490Z,83.14
2022-12-11T03:54:49.875Z,83.00
2022-12-11T03:57:23.142Z,83.32
2022-12-11T03:59:51.794Z,83.82
2022-12-11T04:02:20.327Z,83.39
2022-12-11T04:04:48.969Z,83.43
2022-12-11T04:07:17.752Z,83.68
2022-12-11T04:09:47.376Z,83.56
2022-12-11T04:12:16.014Z,82.60
2022-12-11T04:15:05.007Z,83.77
2022-12-11T04:17:54.627Z,81.95
2022-12-11T04:20:41.764Z,82.86
2022-12-11T04:23:34.309Z,82.30
2022-12-11T04:26:10.234Z,82.78
2022-12-11T04:28:39.717Z,83.77
2022-12-11T04:31:12.771Z,82.73
2022-12-11T04:33:41.538Z,82.54
2022-12-11T04:36:11.417Z,83.45
2022-12-11T04:38:40.234Z,82.47
2022-12-11T04:41:12.546Z,82.70
2022-12-11T04:43:41.953Z,82.53
2022-12-11T04:46:16.729Z,83.18
2022-12-11T04:48:46.238Z,83.38
2022-12-11T04:51:15.467Z,83.44
2022-12-11T04:53:44.501Z,82.07
2022-12-11T04:56:15.350Z,82.82
2022-12-11T04:58:44.959Z,83.01
2022-12-11T05:01:17.784Z,83.33
2022-12-11T05:03:46.875Z,82.54
2022-12-11T05:06:16.236Z,82.58
2022-12-11T05:08:46.024Z,82.04
2022-12-11T05:11:20.929Z,82.25
2022-12-11T05:13:49.850Z,82.43
2022-12-11T05:16:18.799Z,81.83
2022-12-11T05:18:48.260Z,81.50
2022-12-11T05:21:17.240Z,82.15
2022-12-11T05:23:45.843Z,81.71
2022-12-11T05:26:20.584Z,82.42
2022-12-11T05:28:54.079Z,81.21
2022-12-11T05:31:26.206Z,80.93
2022-12-11T05:33:55.319Z,81.34
2022-12-11T05:36:32.795Z,81.02
2022-12-11T05:39:03.057Z,81.80
2022-12-11T05:41:33.535Z,81.10
2022-12-11T05:44:02.353Z,79.72
2022-12-11T05:46:32.306Z,79.93
2022-12-11T05:49:02.742Z,80.52
2022-12-11T05:51:35.143Z,79.93
2022-12-11T05:54:04.501Z,80.11
2022-12-11T05:56:35.336Z,79.56
2022-12-11T05:59:05.658Z,79.54
2022-12-11T06:01:40.438Z,79.24
2022-12-11T06:04:12.122Z,79.48
2022-12-11T06:06:41.506Z,78.70
2022-12-11T06:09:15.288Z,79.03
2022-12-11T06:11:44.234Z,78.59
2022-12-11T06:14:14.722Z,78.64
2022-12-11T06:16:44.107Z,78.18
2022-12-11T06:19:19.262Z,77.51
2022-12-11T06:21:49.786Z,77.41
2022-12-11T06:24:18.718Z,77.76
2022-12-11T06:26:47.756Z,77.09
2022-12-11T06:29:16.616Z,77.11
2022-12-11T06:31:45.690Z,76.83
2022-12-11T06:34:14.918Z,76.02
2022-12-11T06:36:44.037Z,76.64
2022-12-11T06:39:13.186Z,76.23
2022-12-11T06:41:41.947Z,75.74
2022-12-11T06:44:10.837Z,75.71
2022-12-11T06:46:39.844Z,75.02
2022-12-11T06:49:08.995Z,75.64
2022-12-11T06:51:38.076Z,75.89
2022-12-11T06:54:06.780Z,76.28
2022-12-11T06:56:39.285Z,76.91
2022-12-11T06:59:08.282Z,76.48
2022-12-11T07:01:37.475Z,77.08
2022-12-11T07:04:09.220Z,77.80
2022-12-11T07:06:38.223Z,78.13
2022-12-11T07:09:07.635Z,78.54
2022-12-11T07:11:36.744Z,77.83
2022-12-11T07:14:05.777Z,78.98
2022-12-11T07:16:34.665Z,79.16
2022-12-11T07:19:03.999Z,79.21
2022-12-11T08:50:23.769Z,81.04
2022-12-11T08:52:54.403Z,81.14
2022-12-11T08:55:22.969Z,81.22
2022-12-11T08:57:52.110Z,82.50
2022-12-11T09:00:20.777Z,82.08
2022-12-11T09:02:49.636Z,82.14
2022-12-11T09:05:18.556Z,80.70
2022-12-11T09:07:47.435Z,80.96
2022-12-11T09:10:16.319Z,81.61
2022-12-11T09:12:45.105Z,81.85
2022-12-11T09:15:13.847Z,81.09
2022-12-11T09:17:42.719Z,81.57
2022-12-11T09:20:11.779Z,81.24
2022-12-11T09:22:40.519Z,81.62
2022-12-11T09:25:10.549Z,81.22
2022-12-11T09:27:39.499Z,82.06
2022-12-11T09:30:09.384Z,80.97
2022-12-11T09:32:41.515Z,82.02
2022-12-11T09:35:11.708Z,81.82
2022-12-11T09:37:40.676Z,81.74
2022-12-11T09:40:13.034Z,80.87
2022-12-11T09:42:55.516Z,81.29
2022-12-11T09:45:24.554Z,82.15
2022-12-11T09:47:56.741Z,81.27
2022-12-11T09:50:34.057Z,82.20
2022-12-11T09:53:31.071Z,82.03
2022-12-11T09:56:26.919Z,81.99
2022-12-11T09:59:07.703Z,80.69
2022-12-11T10:01:42.523Z,81.29
2022-12-11T10:04:32.981Z,82.17
2022-12-11T10:07:24.405Z,82.72
2022-12-11T10:10:23.709Z,82.02
2022-12-11T10:12:52.612Z,81.40
2022-12-11T10:15:33.977Z,81.64
2022-12-11T10:18:05.881Z,82.55
2022-12-11T10:20:41.150Z,82.06
2022-12-11T10:23:29.478Z,82.17
2022-12-11T10:26:12.500Z,81.82
2022-12-11T10:28:41.617Z,82.39
2022-12-11T10:31:33.784Z,82.03
2022-12-11T10:34:13.753Z,81.99
2022-12-11T10:36:44.298Z,82.63
2022-12-11T10:39:21.147Z,82.49
2022-12-11T10:41:55.620Z,82.77
2022-12-11T10:44:26.409Z,82.55
2022-12-11T10:47:16.321Z,81.95
2022-12-11T10:49:57.625Z,81.42
2022-12-11T10:52:46.381Z,82.94
2022-12-11T10:55:29.976Z,82.50
2022-12-11T10:58:06.670Z,81.94
2022-12-11T11:00:39.673Z,82.02
2022-12-11T11:03:28.975Z,83.18
2022-12-11T11:06:05.382Z,82.41
2022-12-11T11:08:46.248Z,82.38
2022-12-11T11:11:37.684Z,82.44
2022-12-11T11:14:17.593Z,82.51
2022-12-11T11:16:49.458Z,81.98
2022-12-11T11:19:21.429Z,82.73
2022-12-11T11:21:54.151Z,83.35
2022-12-11T11:24:30.981Z,83.53
2022-12-11T11:27:15.502Z,82.52
2022-12-11T11:29:50.150Z,83.15
2022-12-11T11:32:27.713Z,82.26
2022-12-11T11:35:07.608Z,82.99
2022-12-11T11:37:36.881Z,82.07
2022-12-11T11:40:37.652Z,82.96
2022-12-11T11:43:17.695Z,83.49
2022-12-11T11:45:55.230Z,82.83
2022-12-11T11:48:52.027Z,83.20
2022-12-11T11:51:37.196Z,82.36
2022-12-11T11:54:31.453Z,83.66
2022-12-11T11:57:06.314Z,82.86
2022-12-11T11:59:43.976Z,83.36
2022-12-11T12:02:18.824Z,82.43
2022-12-11T12:04:50.087Z,83.10
2022-12-11T12:07:51.579Z,82.15
2022-12-11T12:10:43.698Z,82.56
2022-12-11T12:13:49.199Z,83.71
2022-12-11T12:16:52.645Z,82.71
2022-12-11T12:19:57.749Z,83.04
2022-12-11T12:22:38.473Z,83.52
2022-12-11T12:25:29.928Z,82.87
2022-12-11T12:28:26.366Z,82.96
2022-12-11T12:31:28.122Z,83.77
2022-12-11T12:34:28.023Z,82.51
2022-12-11T12:37:33.438Z,82.51
2022-12-11T12:40:24.303Z,83.91
2022-12-11T12:43:07.606Z,82.60
2022-12-11T12:45:52.724Z,83.00
2022-12-11T12:48:25.603Z,82.48
2022-12-11T12:50:55.001Z,82.76
2022-12-11T12:53:33.392Z,83.76
2022-12-11T12:56:04.274Z,83.86
2022-12-11T12:58:35.672Z,83.71
2022-12-11T13:01:29.572Z,83.85
2022-12-11T13:04:02.976Z,82.81
2022-12-11T13:06:37.648Z,82.73
2022-12-11T13:09:20.942Z,83.65
2022-12-11T13:11:54.481Z,84.18
2022-12-11T13:14:34.582Z,84.23
2022-12-11T13:17:21.678Z,82.68
2022-12-11T13:19:53.807Z,83.50
2022-12-11T13:22:25.950Z,83.04
2022-12-11T13:25:00.388Z,84.09
2022-12-11T13:27:40.220Z,84.16
2022-12-11T13:30:23.976Z,83.00
2022-12-11T13:32:55.720Z,84.42
2022-12-11T13:35:24.532Z,83.06
2022-12-11T13:37:57.734Z,84.21
2022-12-11T13:40:31.292Z,82.78
2022-12-11T13:43:28.699Z,83.07
2022-12-11T13:46:07.080Z,83.77
2022-12-11T13:48:54.754Z,83.67
2022-12-11T13:51:29.033Z,83.26
2022-12-11T13:54:10.643Z,84.08
2022-12-11T13:56:42.653Z,83.03
2022-12-11T13:59:54.071Z,83.78
2022-12-11T14:02:30.003Z,84.07
2022-12-11T14:05:02.925Z,83.73
2022-12-11T14:07:51.568Z,83.92
2022-12-11T14:10:29.193Z,83.72
2022-12-11T14:13:00.506Z,83.83
2022-12-11T14:15:32.415Z,84.09
2022-12-11T14:18:02.339Z,83.35
2022-12-11T14:20:34.679Z,83.10
2022-12-11T14:23:19.895Z,84.57
2022-12-11T14:26:18.838Z,83.84
2022-12-11T14:28:47.638Z,84.09
2022-12-11T14:31:38.445Z,82.96
2022-12-11T14:34:16.574Z,84.20
2022-12-11T14:36:47.574Z,84.19
2022-12-11T14:39:42.131Z,84.13
2022-12-11T14:42:21.519Z,83.70
2022-12-11T14:44:58.955Z,84.17
2022-12-11T14:47:33.552Z,83.62
2022-12-11T14:50:23.923Z,84.27
2022-12-11T14:53:00.564Z,83.34
2022-12-11T14:55:39.330Z,83.25
2022-12-11T14:58:25.755Z,84.05
2022-12-11T15:01:28.310Z,84.66
2022-12-11T15:04:15.782Z,83.79
2022-12-11T15:06:47.727Z,83.13
2022-12-11T15:09:31.175Z,83.06
2022-12-11T15:12:11.531Z,84.03
2022-12-11T15:15:16.350Z,83.91
2022-12-11T15:17:51.113Z,83.19
2022-12-11T15:20:28.740Z,84.28
2022-12-11T15:23:02.491Z,84.31
2022-12-11T15:25:31.675Z,83.48
2022-12-11T15:28:02.255Z,83.27
2022-12-11T15:30:35.449Z,84.22
2022-12-11T15:33:13.157Z,83.70
2022-12-11T15:35:55.334Z,84.10
2022-12-11T15:38:43.234Z,83.49
2022-12-11T15:41:17.067Z,83.82
2022-12-11T15:43:47.047Z,83.38
2022-12-11T15:46:16.521Z,84.22
2022-12-11T15:48:45.419Z,84.01
2022-12-11T15:51:14.659Z,83.37
2022-12-11T15:53:43.962Z,84.45
2022-12-11T15:56:19.888Z,83.52
2022-12-11T15:58:50.486Z,83.19
2022-12-11T16:01:19.982Z,83.78
2022-12-11T16:03:50.986Z,83.62
2022-12-11T16:06:20.056Z,83.54
2022-12-11T16:08:49.091Z,84.53
2022-12-11T16:11:18.267Z,84.24
2022-12-11T16:13:47.795Z,84.74
2022-12-11T16:16:17.282Z,84.33
2022-12-11T16:18:47.796Z,83.76
2022-12-11T16:21:21.212Z,84.30
2022-12-11T16:23:50.995Z,83.56
2022-12-11T16:26:19.958Z,83.48
2022-12-11T16:28:48.867Z,83.61
2022-12-11T16:31:18.461Z,84.11
2022-12-11T16:33:48.415Z,83.53
2022-12-11T16:36:19.670Z,83.83
2022-12-11T16:38:53.843Z,83.72
2022-12-11T16:41:24.114Z,83.61
2022-12-11T16:43:54.433Z,84.51
2022-12-11T16:46:24.587Z,83.65
2022-12-11T16:48:53.215Z,84.29
2022-12-11T16:51:22.100Z,84.31
2022-12-11T16:53:51.375Z,84.38
2022-12-11T16:56:20.322Z,83.98
2022-12-11T16:58:50.117Z,84.03
2022-12-11T17:01:19.215Z,84.04
2022-12-11T17:03:48.308Z,84.11
2022-12-11T17:06:19.176Z,83.77
2022-12-11T17:08:48.826Z,83.65
2022-12-11T17:11:20.937Z,84.20
2022-12-11T17:13:58.011Z,83.60
2022-12-11T17:16:31.061Z,84.31
2022-12-11T17:19:00.520Z,84.40
2022-12-11T17:21:29.159Z,84.44
2022-12-11T17:23:58.356Z,83.65
2022-12-11T17:26:29.420Z,83.63
2022-12-11T17:28:59.525Z,83.97
2022-12-11T17:31:28.805Z,84.24
2022-12-11T17:34:01.771Z,84.33
2022-12-11T17:36:31.240Z,84.64
2022-12-11T17:39:00.227Z,83.74
2022-12-11T17:41:29.021Z,83.42
2022-12-11T17:43:57.628Z,83.48
2022-12-11T17:46:26.639Z,84.40
2022-12-11T17:48:55.531Z,83.50
2022-12-11T17:51:27.017Z,84.16
2022-12-11T17:53:56.936Z,83.33
2022-12-11T17:56:26.608Z,84.23
2022-12-11T17:58:55.939Z,83.92
2022-12-11T18:01:24.882Z,83.12
2022-12-11T18:03:54.067Z,83.59
2022-12-11T18:06:23.823Z,84.28
2022-12-11T18:08:53.584Z,83.89
2022-12-11T18:11:23.065Z,84.38
2022-12-11T18:13:53.412Z,83.27
2022-12-11T18:16:28.818Z,83.00
2022-12-11T18:18:57.741Z,84.44
2022-12-11T18:21:30.259Z,83.99
2022-12-11T18:23:59.724Z,82.91
2022-12-11T18:26:29.955Z,83.69
2022-12-11T18:28:59.284Z,83.90
2022-12-11T18:31:28.755Z,84.89
2022-12-11T18:33:58.847Z,84.93
2022-12-11T18:36:28.640Z,83.67
2022-12-11T18:38:57.584Z,84.64
2022-12-11T18:41:27.143Z,85.14
2022-12-11T18:43:56.222Z,84.12
2022-12-11T18:46:25.948Z,83.55
2022-12-11T18:48:55.612Z,84.57
2022-12-11T18:51:27.508Z,84.75
2022-12-11T18:53:56.355Z,83.92
2022-12-11T18:56:26.966Z,84.31
2022-12-11T18:58:56.110Z,84.43
2022-12-11T19:01:27.787Z,84.05
2022-12-11T19:04:05.353Z,83.81
2022-12-11T19:06:36.954Z,83.83
2022-12-11T19:09:07.880Z,83.39
2022-12-11T19:11:39.654Z,82.86
2022-12-11T19:14:10.143Z,82.90
2022-12-11T19:16:41.899Z,83.27
2022-12-11T19:19:16.848Z,82.93
2022-12-11T19:21:46.795Z,83.03
2022-12-11T19:24:22.103Z,83.48
2022-12-11T19:26:51.992Z,82.68
2022-12-11T19:29:23.732Z,83.23
2022-12-11T19:31:52.633Z,82.53
2022-12-11T19:34:21.537Z,83.44
2022-12-11T19:36:50.291Z,83.68
2022-12-11T19:39:20.536Z,82.43
2022-12-11T19:41:50.026Z,83.04
2022-12-11T19:44:19.207Z,82.94
2022-12-11T19:46:48.885Z,82.82
2022-12-11T19:49:17.862Z,82.87
2022-12-11T19:51:46.835Z,83.37
2022-12-11T19:54:17.318Z,83.00
2022-12-11T19:56:46.664Z,83.42
2022-12-11T19:59:17.601Z,83.14
2022-12-11T20:01:48.928Z,82.91
2022-12-11T20:04:19.116Z,83.15
2022-12-11T20:06:49.149Z,82.74
2022-12-11T20:09:18.867Z,83.17
2022-12-11T20:11:48.660Z,82.96
2022-12-11T20:14:24.416Z,82.88
2022-12-11T20:17:13.985Z,82.77
2022-12-11T20:19:44.113Z,83.02
2022-12-11T20:22:13.530Z,82.77
2022-12-11T20:24:42.472Z,82.76
2022-12-11T20:27:13.266Z,83.08
2022-12-11T20:29:42.164Z,83.04
2022-12-11T20:32:12.265Z,82.50
2022-12-11T20:34:42.218Z,82.92
2022-12-11T20:37:11.700Z,83.04
2022-12-11T20:39:40.989Z,82.83
2022-12-11T20:42:11.682Z,83.51
2022-12-11T20:44:44.187Z,82.68
2022-12-11T20:47:22.268Z,83.31
2022-12-11T20:49:53.331Z,82.14
2022-12-11T20:52:22.314Z,82.77
2022-12-11T20:54:51.006Z,83.04
2022-12-11T20:57:20.122Z,82.19
2022-12-11T20:59:50.242Z,82.27
2022-12-11T21:02:19.126Z,83.13
2022-12-11T21:04:48.164Z,82.61
2022-12-11T21:07:16.887Z,82.60
2022-12-11T21:09:45.813Z,81.79
2022-12-11T21:12:14.742Z,82.57
2022-12-11T21:14:43.632Z,82.97
2022-12-11T21:17:12.648Z,82.99
2022-12-11T21:19:41.515Z,83.39
2022-12-11T21:22:11.187Z,83.46
2022-12-11T21:24:40.181Z,82.74
2022-12-11T21:27:09.035Z,83.04
2022-12-11T21:29:38.380Z,82.60
2022-12-11T21:32:07.650Z,82.31
2022-12-11T21:34:38.651Z,82.86
2022-12-11T21:37:07.609Z,82.40
2022-12-11T21:39:39.678Z,82.49
2022-12-11T21:42:08.697Z,83.11
2022-12-11T21:45:31.437Z,82.84
2022-12-11T21:47:28.904Z,83.04
2022-12-11T21:49:57.733Z,82.56
2022-12-11T21:52:26.429Z,82.38
2022-12-11T21:54:55.501Z,81.48
2022-12-11T21:57:26.977Z,81.87
2022-12-11T21:59:55.630Z,81.83
2022-12-11T22:02:24.288Z,82.48
2022-12-11T22:04:52.933Z,82.00
2022-12-11T22:07:23.253Z,82.08
2022-12-11T22:09:51.938Z,82.17
2022-12-11T22:12:27.652Z,81.44
2022-12-11T22:14:56.876Z,81.96
2022-12-11T22:17:25.763Z,81.19
2022-12-11T22:19:55.024Z,82.47
2022-12-11T22:22:24.148Z,82.17
2022-12-11T22:24:52.736Z,81.26
2022-12-11T22:27:24.269Z,82.25
2022-12-11T22:29:55.463Z,80.59
2022-12-11T22:32:24.727Z,81.84
2022-12-11T22:34:53.796Z,81.30
2022-12-11T22:37:22.677Z,80.59
2022-12-11T22:39:51.708Z,80.92
2022-12-11T22:42:20.457Z,80.63
2022-12-11T22:44:49.386Z,80.54
2022-12-11T22:47:18.558Z,80.92
2022-12-11T22:49:47.683Z,81.24
2022-12-11T22:52:16.318Z,81.25
2022-12-11T22:54:45.265Z,81.66
2022-12-11T22:57:15.094Z,81.58
2022-12-11T22:59:44.045Z,80.63
2022-12-11T23:02:12.811Z,80.87
2022-12-11T23:04:41.697Z,80.58
2022-12-11T23:07:10.727Z,81.30
2022-12-11T23:09:39.829Z,81.74
2022-12-11T23:12:09.435Z,81.71
2022-12-11T23:14:38.246Z,81.07
2022-12-11T23:17:06.851Z,80.98
2022-12-11T23:19:35.588Z,81.82
2022-12-11T23:22:04.814Z,81.84
2022-12-11T23:24:33.532Z,81.14
2022-12-11T23:27:02.574Z,81.29
2022-12-11T23:29:31.574Z,82.03
2022-12-11T23:32:00.297Z,81.67
2022-12-11T23:34:29.446Z,81.85
2022-12-11T23:36:58.560Z,81.38
2022-12-11T23:39:27.309Z,80.90
2022-12-11T23:41:56.133Z,81.34
2022-12-11T23:44:24.714Z,81.12
2022-12-11T23:46:53.312Z,81.05
2022-12-11T23:49:22.012Z,81.09
2022-12-11T23:51:50.869Z,81.34
2022-12-11T23:54:19.676Z,81.96
2022-12-11T23:56:48.724Z,81.91
2022-12-11T23:59:17.395Z,81.26
